Time;durP1;ratioP1;P1;durP2;ratioP2;P2;SDS_P1;SDS_P2;PMS_P1;PMS_P2;Temp;Humidity;BMP_temperature;BMP_pressure;BME280_temperature;BME280_humidity;BME280_pressure;Samples;Min_cycle;Max_cycle;Signal;HPM_P1;HPM_P2
2022/01/16 00:02:10;;;;;;;40.77;19.80;;;2.50;99.90;;;;;;5056424;28;20751;-49
2022/01/16 00:04:28;;;;;;;46.90;23.17;;;2.50;99.90;;;;;;5053249;28;20478;-47
2022/01/16 00:06:54;;;;;;;42.30;21.30;;;2.60;99.90;;;;;;5057289;28;20507;-48
2022/01/16 00:09:20;;;;;;;41.33;20.47;;;2.60;99.90;;;;;;5055949;28;20221;-48
2022/01/16 00:11:45;;;;;;;45.63;23.13;;;2.50;99.90;;;;;;5056759;28;20628;-51
2022/01/16 00:14:12;;;;;;;55.07;25.37;;;2.50;99.90;;;;;;5055345;28;20185;-51
2022/01/16 00:16:41;;;;;;;59.30;23.30;;;2.30;99.90;;;;;;5058767;28;20224;-46
2022/01/16 00:19:07;;;;;;;52.20;22.13;;;2.20;99.90;;;;;;5055914;28;20825;-48
2022/01/16 00:21:40;;;;;;;49.50;23.67;;;2.20;99.90;;;;;;5055058;28;20459;-46
2022/01/16 00:24:07;;;;;;;46.07;21.77;;;2.30;99.90;;;;;;5053768;28;20432;-46
2022/01/16 00:26:33;;;;;;;53.03;23.83;;;2.20;99.90;;;;;;5053491;28;20476;-50
2022/01/16 00:28:59;;;;;;;43.87;22.03;;;2.20;99.90;;;;;;5058232;28;20745;-47
2022/01/16 00:31:24;;;;;;;47.83;22.43;;;2.30;99.90;;;;;;5057704;28;20431;-45
2022/01/16 00:33:51;;;;;;;46.60;22.27;;;2.30;99.90;;;;;;5059301;28;20434;-47
2022/01/16 00:36:18;;;;;;;50.50;21.30;;;2.20;99.90;;;;;;5055150;28;20205;-46
2022/01/16 00:38:49;;;;;;;45.00;20.50;;;2.10;99.90;;;;;;5055049;28;21013;-48
2022/01/16 00:41:20;;;;;;;49.20;23.03;;;2.10;99.90;;;;;;5058071;28;20530;-48
2022/01/16 00:43:47;;;;;;;48.20;21.30;;;2.10;99.90;;;;;;5052381;28;20965;-49
2022/01/16 00:46:13;;;;;;;42.50;22.10;;;2.10;99.90;;;;;;5057873;28;20496;-47
2022/01/16 00:48:39;;;;;;;55.13;23.40;;;2.10;99.90;;;;;;5056224;28;20445;-51
2022/01/16 00:51:05;;;;;;;48.63;21.63;;;2.20;99.90;;;;;;5058981;28;20489;-47
2022/01/16 00:53:31;;;;;;;49.10;22.17;;;2.10;99.90;;;;;;5060938;28;20545;-47
2022/01/16 00:55:56;;;;;;;55.63;26.53;;;2.20;99.90;;;;;;5054972;28;20470;-50
2022/01/16 00:58:22;;;;;;;47.50;21.40;;;2.00;99.90;;;;;;5057382;28;20193;-54
2022/01/16 01:00:48;;;;;;;39.90;19.17;;;2.00;99.90;;;;;;5055814;28;20238;-50
2022/01/16 01:03:14;;;;;;;47.33;20.43;;;2.20;99.90;;;;;;5052764;28;20236;-46
2022/01/16 01:05:40;;;;;;;46.53;20.00;;;2.10;99.90;;;;;;5047754;28;20254;-50
2022/01/16 01:08:07;;;;;;;50.83;21.10;;;2.10;99.90;;;;;;5054645;28;20467;-48
2022/01/16 01:10:35;;;;;;;42.37;20.00;;;1.90;99.90;;;;;;5056563;28;20187;-52
2022/01/16 01:13:09;;;;;;;47.67;19.30;;;2.00;99.90;;;;;;5052866;28;20436;-48
2022/01/16 01:15:48;;;;;;;34.57;17.87;;;1.90;99.90;;;;;;5057727;28;20453;-47
2022/01/16 01:18:15;;;;;;;32.33;17.20;;;1.90;99.90;;;;;;5057233;28;20442;-46
2022/01/16 01:20:43;;;;;;;38.40;18.30;;;1.90;99.90;;;;;;5054575;28;20447;-46
2022/01/16 01:23:10;;;;;;;43.17;19.10;;;1.80;99.90;;;;;;5056013;28;20430;-48
2022/01/16 01:25:37;;;;;;;39.87;19.43;;;1.80;99.90;;;;;;5051604;28;20532;-46
2022/01/16 01:28:07;;;;;;;36.37;17.60;;;1.70;99.90;;;;;;5038552;28;20545;-48
2022/01/16 01:30:32;;;;;;;40.77;19.00;;;1.50;99.90;;;;;;5056864;28;21820;-50
2022/01/16 01:32:59;;;;;;;45.00;17.20;;;1.50;99.90;;;;;;5056509;28;20439;-46
2022/01/16 01:35:25;;;;;;;35.30;15.77;;;1.60;99.90;;;;;;5054233;28;20624;-46
2022/01/16 01:37:51;;;;;;;38.93;17.50;;;1.60;99.90;;;;;;5055110;28;20421;-46
2022/01/16 01:40:20;;;;;;;47.00;19.77;;;1.50;99.90;;;;;;5054413;28;20515;-46
2022/01/16 01:43:03;;;;;;;44.63;20.20;;;1.50;99.90;;;;;;5050994;28;20577;-45
2022/01/16 01:51:17;;;;;;;45.50;19.87;;;1.50;99.90;;;;;;5058857;28;20413;-47
2022/01/16 01:53:44;;;;;;;38.93;18.30;;;1.40;99.90;;;;;;5055903;28;20799;-46
2022/01/16 01:56:12;;;;;;;42.23;18.83;;;1.40;99.90;;;;;;5052536;28;21932;-49
2022/01/16 01:58:39;;;;;;;36.43;19.43;;;1.40;99.90;;;;;;5055739;28;20453;-51
2022/01/16 02:01:05;;;;;;;39.33;19.07;;;1.20;99.90;;;;;;5053577;28;20460;-49
2022/01/16 02:03:42;;;;;;;41.70;19.60;;;1.30;99.90;;;;;;5052351;28;20492;-49
2022/01/16 02:06:14;;;;;;;43.50;21.63;;;1.40;99.90;;;;;;5054494;28;20472;-49
2022/01/16 02:08:45;;;;;;;36.23;18.10;;;1.20;99.90;;;;;;5055637;28;20868;-46
2022/01/16 02:11:15;;;;;;;39.77;18.70;;;1.10;99.90;;;;;;5056234;28;20447;-52
2022/01/16 02:14:08;;;;;;;35.40;18.60;;;1.10;99.90;;;;;;5052274;28;20857;-46
2022/01/16 02:33:23;;;;;;;36.70;17.10;;;1.10;99.90;;;;;;5054227;28;20436;-46
2022/01/16 02:35:51;;;;;;;43.60;18.97;;;1.20;99.90;;;;;;5051767;28;20478;-47
2022/01/16 02:38:17;;;;;;;37.13;17.20;;;1.20;99.90;;;;;;5058090;28;20426;-48
2022/01/16 02:40:53;;;;;;;42.17;17.40;;;1.20;99.90;;;;;;5054067;28;20629;-46
2022/01/16 02:43:28;;;;;;;39.77;17.80;;;1.20;99.90;;;;;;5053373;28;20607;-47
2022/01/16 02:46:09;;;;;;;39.03;16.40;;;1.00;99.90;;;;;;5038166;28;20470;-48
2022/01/16 02:48:35;;;;;;;37.50;18.37;;;0.80;99.90;;;;;;5054685;28;20571;-46
2022/01/16 02:51:01;;;;;;;37.43;17.77;;;0.90;99.90;;;;;;5053304;28;20929;-46
2022/01/16 02:53:26;;;;;;;38.73;16.87;;;0.90;99.90;;;;;;5052906;28;20195;-48
2022/01/16 02:55:52;;;;;;;34.33;16.73;;;0.80;99.90;;;;;;5055616;28;20701;-48
2022/01/16 02:58:17;;;;;;;37.10;17.70;;;0.80;99.90;;;;;;5054846;28;20221;-47
2022/01/16 03:00:43;;;;;;;39.40;18.60;;;0.90;99.90;;;;;;5056676;28;20191;-48
2022/01/16 03:03:09;;;;;;;36.33;16.73;;;0.80;99.90;;;;;;5052091;28;20273;-46
2022/01/16 03:05:35;;;;;;;34.23;17.30;;;0.80;99.90;;;;;;5054081;28;20732;-49
2022/01/16 03:08:01;;;;;;;34.10;17.70;;;0.60;99.90;;;;;;5055158;28;20593;-51
2022/01/16 03:13:10;;;;;;;37.60;18.13;;;0.80;99.90;;;;;;5052496;28;20441;-48
2022/01/16 03:15:38;;;;;;;33.43;15.97;;;0.70;99.90;;;;;;5053771;28;20442;-47
2022/01/16 03:23:34;;;;;;;36.40;16.97;;;0.60;99.90;;;;;;5055676;28;20416;-51
2022/01/16 03:26:00;;;;;;;39.00;16.30;;;0.50;99.90;;;;;;5048597;28;20472;-47
2022/01/16 03:28:26;;;;;;;32.30;17.30;;;0.60;99.90;;;;;;5053691;28;20654;-49
2022/01/16 03:30:53;;;;;;;34.90;16.57;;;0.50;99.90;;;;;;5057870;28;20438;-52
2022/01/16 03:33:20;;;;;;;38.23;18.70;;;0.40;99.90;;;;;;5053812;28;20420;-48
2022/01/16 03:35:46;;;;;;;47.67;19.77;;;0.30;99.90;;;;;;5054133;28;20476;-47
2022/01/16 03:38:12;;;;;;;41.73;18.47;;;0.30;99.90;;;;;;5049675;28;20425;-45
2022/01/16 03:40:38;;;;;;;40.03;19.63;;;0.30;99.90;;;;;;5052663;28;20431;-47
2022/01/16 03:43:14;;;;;;;44.73;18.77;;;0.20;99.90;;;;;;5053723;28;20207;-51
2022/01/16 03:45:41;;;;;;;46.47;19.03;;;0.20;99.90;;;;;;5055903;28;20679;-47
2022/01/16 03:48:07;;;;;;;35.30;16.97;;;0.10;99.90;;;;;;5056871;28;20449;-46
2022/01/16 03:50:32;;;;;;;55.87;20.03;;;0.10;99.90;;;;;;5056799;28;20438;-47
2022/01/16 03:52:58;;;;;;;45.90;18.53;;;0.00;99.90;;;;;;5058876;28;20286;-49
2022/01/16 03:55:24;;;;;;;50.47;17.83;;;-0.10;99.90;;;;;;5054560;28;20209;-52
2022/01/16 03:57:49;;;;;;;46.30;17.47;;;0.10;99.90;;;;;;5059882;28;20176;-48
2022/01/16 04:00:15;;;;;;;47.23;22.10;;;0.10;99.90;;;;;;5055565;28;20192;-48
2022/01/16 04:02:41;;;;;;;49.77;18.30;;;0.10;99.90;;;;;;5057396;28;20186;-47
2022/01/16 04:05:07;;;;;;;40.73;17.80;;;0.20;99.90;;;;;;5060851;28;20184;-46
2022/01/16 04:07:35;;;;;;;40.10;17.83;;;0.20;99.90;;;;;;5054459;28;20229;-47
2022/01/16 04:10:06;;;;;;;45.43;21.30;;;0.20;99.90;;;;;;5058730;28;20979;-46
2022/01/16 04:12:34;;;;;;;44.37;19.40;;;0.20;99.90;;;;;;5059700;28;20438;-49
2022/01/16 04:17:25;;;;;;;44.10;19.23;;;0.10;99.90;;;;;;5057007;28;20470;-52
2022/01/16 04:19:52;;;;;;;44.40;20.07;;;0.20;99.90;;;;;;5058575;28;20748;-49
2022/01/16 04:22:18;;;;;;;52.67;18.97;;;0.30;99.90;;;;;;5053770;28;20198;-53
2022/01/16 04:24:44;;;;;;;46.03;19.37;;;0.20;99.90;;;;;;5053073;28;20456;-52
2022/01/16 04:27:11;;;;;;;46.73;22.37;;;0.30;99.90;;;;;;5055382;28;21049;-52
2022/01/16 04:29:41;;;;;;;43.00;18.93;;;0.30;99.90;;;;;;5055654;28;20661;-47
2022/01/16 04:32:07;;;;;;;61.80;21.70;;;0.30;99.90;;;;;;5061284;28;20433;-49
2022/01/16 04:34:32;;;;;;;44.40;18.43;;;0.40;99.90;;;;;;5041030;28;20446;-48
2022/01/16 04:36:58;;;;;;;40.50;20.50;;;0.40;99.90;;;;;;5056578;28;20486;-48
2022/01/16 04:39:31;;;;;;;47.73;20.50;;;0.40;99.90;;;;;;5055646;28;20189;-48
2022/01/16 04:44:41;;;;;;;44.47;20.00;;;0.50;99.90;;;;;;5055977;28;20970;-46
2022/01/16 04:47:07;;;;;;;52.23;20.57;;;0.60;99.90;;;;;;5055439;28;20468;-47
2022/01/16 04:49:32;;;;;;;41.30;17.33;;;0.50;99.90;;;;;;5052783;28;20566;-45
2022/01/16 04:51:58;;;;;;;37.57;19.47;;;0.50;99.90;;;;;;5056263;28;20165;-46
2022/01/16 04:54:25;;;;;;;40.47;18.37;;;0.50;99.90;;;;;;5053542;28;20197;-46
2022/01/16 04:56:51;;;;;;;35.97;15.33;;;0.30;99.90;;;;;;5054242;28;20214;-47
2022/01/16 04:59:17;;;;;;;39.20;16.63;;;0.40;99.90;;;;;;5057381;28;20423;-48
2022/01/16 05:01:43;;;;;;;47.77;18.20;;;0.30;99.90;;;;;;5056970;28;20901;-50
2022/01/16 05:04:09;;;;;;;39.40;17.13;;;0.40;99.90;;;;;;5053068;28;20808;-52
2022/01/16 05:06:35;;;;;;;43.23;16.60;;;0.30;99.90;;;;;;5055350;28;20472;-47
2022/01/16 05:09:00;;;;;;;36.87;16.90;;;0.30;99.90;;;;;;5053519;28;20187;-50
2022/01/16 05:11:27;;;;;;;40.73;16.10;;;0.30;99.90;;;;;;5055947;28;20218;-51
2022/01/16 05:16:41;;;;;;;40.63;16.53;;;0.40;99.90;;;;;;5054978;28;20444;-50
2022/01/16 05:19:12;;;;;;;39.67;17.40;;;0.20;99.90;;;;;;5054403;28;20916;-52
2022/01/16 05:21:40;;;;;;;39.83;14.40;;;0.30;99.90;;;;;;5055750;28;20450;-51
2022/01/16 05:24:10;;;;;;;34.63;16.47;;;0.10;99.90;;;;;;5053849;28;21292;-50
2022/01/16 05:26:42;;;;;;;39.37;16.97;;;0.10;99.90;;;;;;5054354;28;20479;-48
2022/01/16 05:29:09;;;;;;;40.10;14.80;;;0.10;99.90;;;;;;5058437;28;20410;-49
2022/01/16 05:31:35;;;;;;;27.23;12.17;;;0.10;99.90;;;;;;5053007;28;20782;-51
2022/01/16 05:34:01;;;;;;;49.67;17.20;;;0.10;99.90;;;;;;5054062;28;20435;-51
2022/01/16 05:36:26;;;;;;;28.87;12.70;;;0.00;99.90;;;;;;5056172;28;20204;-51
2022/01/16 05:38:53;;;;;;;34.97;14.23;;;0.00;99.90;;;;;;5053416;28;20216;-49
2022/01/16 05:41:19;;;;;;;34.10;16.57;;;0.10;99.90;;;;;;5056368;28;20562;-51
2022/01/16 05:43:46;;;;;;;34.87;14.60;;;0.00;99.90;;;;;;5057221;28;20488;-49
2022/01/16 05:46:13;;;;;;;31.50;15.50;;;0.00;99.90;;;;;;5054283;28;20483;-49
2022/01/16 05:48:39;;;;;;;36.57;17.17;;;0.00;99.90;;;;;;5056637;28;20807;-50
2022/01/16 05:51:04;;;;;;;27.47;15.27;;;-0.10;99.90;;;;;;5052569;28;20985;-48
2022/01/16 05:53:30;;;;;;;17.80;10.10;;;0.00;99.90;;;;;;5052976;28;20263;-48
2022/01/16 05:55:56;;;;;;;38.60;18.00;;;0.00;99.90;;;;;;5053627;28;20326;-51
2022/01/16 05:58:21;;;;;;;26.50;13.07;;;-0.10;99.90;;;;;;5055461;28;20712;-49
2022/01/16 06:00:48;;;;;;;28.83;12.73;;;-0.10;99.90;;;;;;5052688;28;20606;-46
2022/01/16 06:03:14;;;;;;;38.07;16.83;;;-0.10;99.90;;;;;;5054508;28;20172;-52
2022/01/16 06:05:39;;;;;;;38.30;16.43;;;-0.10;99.90;;;;;;5053772;28;20467;-50
2022/01/16 06:08:12;;;;;;;43.43;15.80;;;-0.10;99.90;;;;;;5053819;28;20420;-49
2022/01/16 06:10:38;;;;;;;31.30;15.70;;;-0.20;99.90;;;;;;5057318;28;20176;-50
2022/01/16 06:13:05;;;;;;;29.60;13.80;;;-0.30;99.90;;;;;;5039638;28;20534;-51
2022/01/16 06:15:30;;;;;;;38.57;15.43;;;-0.20;99.90;;;;;;5051097;28;20479;-50
2022/01/16 06:17:56;;;;;;;36.00;15.80;;;-0.20;99.90;;;;;;5054167;28;20464;-48
2022/01/16 06:20:22;;;;;;;40.33;15.77;;;-0.10;99.90;;;;;;5049686;28;20516;-51
2022/01/16 06:22:48;;;;;;;28.83;15.00;;;-0.10;99.90;;;;;;5053878;28;20438;-48
2022/01/16 06:25:14;;;;;;;39.70;16.80;;;-0.10;99.90;;;;;;5055852;28;20679;-49
2022/01/16 06:27:40;;;;;;;29.60;15.90;;;-0.10;99.90;;;;;;5036557;28;20274;-47
2022/01/16 06:30:08;;;;;;;29.73;12.53;;;0.00;99.90;;;;;;5056773;28;20429;-49
2022/01/16 06:32:34;;;;;;;35.97;15.77;;;0.10;99.90;;;;;;5040796;28;20971;-47
2022/01/16 06:34:59;;;;;;;30.00;15.10;;;0.00;99.90;;;;;;5055202;28;20419;-48
2022/01/16 06:37:25;;;;;;;34.57;17.40;;;-0.10;99.90;;;;;;5052297;28;20701;-47
2022/01/16 06:39:51;;;;;;;36.37;16.40;;;-0.10;99.90;;;;;;5055922;28;20189;-49
2022/01/16 06:42:16;;;;;;;35.37;16.40;;;0.00;99.90;;;;;;5054778;28;20491;-50
2022/01/16 06:44:42;;;;;;;38.20;15.50;;;0.00;99.90;;;;;;5054839;28;20270;-49
2022/01/16 06:47:09;;;;;;;33.47;15.50;;;0.10;99.90;;;;;;5052007;28;20410;-49
2022/01/16 06:49:35;;;;;;;27.93;12.80;;;-0.10;99.90;;;;;;5048681;28;20434;-50
2022/01/16 06:52:00;;;;;;;28.47;15.40;;;-0.10;99.90;;;;;;5054526;28;20856;-47
2022/01/16 06:54:26;;;;;;;31.20;15.60;;;0.00;99.90;;;;;;5054985;28;20545;-51
2022/01/16 06:56:52;;;;;;;39.23;18.00;;;0.00;99.90;;;;;;5056311;28;20592;-47
2022/01/16 06:59:18;;;;;;;35.13;17.60;;;-0.10;99.90;;;;;;5055178;28;20188;-50
2022/01/16 07:01:43;;;;;;;33.33;17.37;;;-0.10;99.90;;;;;;5053579;28;20249;-49
2022/01/16 07:04:09;;;;;;;32.20;16.77;;;0.00;99.90;;;;;;5054762;28;20469;-48
2022/01/16 07:06:34;;;;;;;30.60;16.83;;;0.00;99.90;;;;;;5056669;28;20288;-50
2022/01/16 07:09:00;;;;;;;30.50;16.50;;;0.00;99.90;;;;;;5050966;28;20669;-45
2022/01/16 07:11:25;;;;;;;27.30;14.30;;;0.10;99.90;;;;;;5054226;28;20743;-47
2022/01/16 07:13:51;;;;;;;31.60;13.80;;;0.10;99.90;;;;;;5055788;28;20264;-49
2022/01/16 07:16:17;;;;;;;31.10;14.97;;;0.10;99.90;;;;;;5054826;28;20211;-47
2022/01/16 07:18:42;;;;;;;37.57;17.70;;;0.10;99.90;;;;;;5054925;28;20199;-46
2022/01/16 07:21:13;;;;;;;37.30;16.43;;;0.10;99.90;;;;;;5062315;28;20564;-47
2022/01/16 07:23:44;;;;;;;39.77;17.20;;;0.10;99.90;;;;;;5057120;28;20185;-46
2022/01/16 07:26:10;;;;;;;28.67;16.80;;;0.10;99.90;;;;;;5060017;28;20507;-47
2022/01/16 07:28:36;;;;;;;35.70;16.03;;;0.10;99.90;;;;;;5056941;28;20496;-48
2022/01/16 07:31:02;;;;;;;30.37;16.33;;;0.20;99.90;;;;;;5054376;28;20428;-47
2022/01/16 07:33:27;;;;;;;36.77;17.43;;;0.20;99.90;;;;;;5056732;28;20207;-48
2022/01/16 07:35:53;;;;;;;39.70;18.80;;;0.20;99.90;;;;;;5058584;28;20208;-51
2022/01/16 07:38:19;;;;;;;37.50;18.33;;;0.20;99.90;;;;;;5054953;28;20188;-49
2022/01/16 07:40:44;;;;;;;36.93;18.50;;;0.30;99.90;;;;;;5056340;28;20781;-50
2022/01/16 07:43:10;;;;;;;40.67;18.33;;;0.30;99.90;;;;;;5058061;28;20405;-47
2022/01/16 07:45:37;;;;;;;35.40;16.63;;;0.40;99.90;;;;;;5061247;28;20545;-47
2022/01/16 07:48:05;;;;;;;46.80;19.70;;;0.40;99.90;;;;;;5055128;28;20660;-47
2022/01/16 07:50:31;;;;;;;40.53;17.60;;;0.40;99.90;;;;;;5036152;28;20472;-50
2022/01/16 07:52:56;;;;;;;44.77;20.60;;;0.50;99.90;;;;;;5055979;28;20471;-47
2022/01/16 07:55:25;;;;;;;42.90;18.00;;;0.50;99.90;;;;;;5054593;28;20205;-47
2022/01/16 07:57:51;;;;;;;46.00;20.20;;;0.60;99.90;;;;;;5059065;28;20189;-48
2022/01/16 08:00:17;;;;;;;46.47;21.07;;;0.60;99.90;;;;;;5058768;28;20502;-47
2022/01/16 08:02:43;;;;;;;47.40;20.00;;;0.60;99.90;;;;;;5056440;28;20506;-51
2022/01/16 08:05:09;;;;;;;43.77;19.47;;;0.70;99.90;;;;;;5059797;28;20492;-47
2022/01/16 08:07:35;;;;;;;41.50;18.60;;;0.70;99.90;;;;;;5060928;28;20199;-46
2022/01/16 08:10:01;;;;;;;41.53;20.80;;;0.60;99.90;;;;;;5058289;28;20518;-47
2022/01/16 08:12:26;;;;;;;40.30;18.87;;;0.60;99.90;;;;;;5056001;28;20525;-52
2022/01/16 08:14:52;;;;;;;48.07;22.70;;;0.60;99.90;;;;;;5055681;28;20189;-53
2022/01/16 08:17:17;;;;;;;40.13;19.63;;;0.70;99.90;;;;;;5056829;28;20207;-51
2022/01/16 08:19:43;;;;;;;42.47;19.93;;;0.80;99.90;;;;;;5056993;28;20271;-54
2022/01/16 08:22:10;;;;;;;51.07;23.03;;;0.70;99.90;;;;;;5060668;28;20369;-50
2022/01/16 08:24:36;;;;;;;53.60;22.13;;;0.70;99.90;;;;;;5056147;28;20257;-51
2022/01/16 08:27:02;;;;;;;50.17;22.60;;;0.70;99.90;;;;;;5057483;28;20987;-49
2022/01/16 08:29:28;;;;;;;44.83;20.33;;;0.70;99.90;;;;;;5055844;28;20641;-48
2022/01/16 08:31:53;;;;;;;49.57;23.47;;;0.70;99.90;;;;;;5054474;28;20184;-48
2022/01/16 08:34:19;;;;;;;47.17;21.20;;;0.80;99.90;;;;;;5054107;28;20269;-49
2022/01/16 08:36:45;;;;;;;43.43;21.93;;;0.90;99.90;;;;;;5061125;28;20212;-48
2022/01/16 08:39:10;;;;;;;50.10;22.60;;;0.80;99.90;;;;;;5054600;28;20245;-47
2022/01/16 08:41:37;;;;;;;46.03;21.07;;;0.90;99.90;;;;;;5052970;28;20192;-45
2022/01/16 08:44:06;;;;;;;37.00;18.63;;;1.00;99.90;;;;;;5057992;28;20263;-47
2022/01/16 08:46:32;;;;;;;49.23;23.03;;;1.00;99.90;;;;;;5054009;28;20554;-45
2022/01/16 08:48:58;;;;;;;42.83;22.00;;;1.00;99.90;;;;;;5040480;28;20413;-48
2022/01/16 08:51:23;;;;;;;42.80;20.43;;;1.00;99.90;;;;;;5057333;28;20434;-49
2022/01/16 08:53:49;;;;;;;39.07;17.37;;;1.20;99.90;;;;;;5034872;28;20203;-50
2022/01/16 08:56:15;;;;;;;39.70;19.57;;;1.10;99.90;;;;;;5036618;28;20210;-54
2022/01/16 08:58:41;;;;;;;42.03;21.90;;;1.10;99.90;;;;;;5056736;28;20559;-53
2022/01/16 09:01:07;;;;;;;40.70;19.47;;;1.10;99.90;;;;;;5052264;28;20428;-51
2022/01/16 09:03:33;;;;;;;50.80;22.47;;;1.00;99.90;;;;;;5053919;28;20529;-52
2022/01/16 09:06:00;;;;;;;41.37;21.00;;;1.10;99.90;;;;;;5056845;28;20197;-52
2022/01/16 09:08:25;;;;;;;44.93;24.80;;;1.00;99.90;;;;;;5057075;28;20446;-48
2022/01/16 09:10:51;;;;;;;42.40;22.80;;;0.90;99.90;;;;;;5054971;28;20425;-51
2022/01/16 09:13:17;;;;;;;48.67;23.33;;;0.90;99.90;;;;;;5057922;28;20193;-47
2022/01/16 09:15:45;;;;;;;41.03;23.27;;;1.00;99.90;;;;;;5052567;28;20222;-53
2022/01/16 09:18:11;;;;;;;35.97;20.17;;;1.00;99.90;;;;;;5053991;28;20181;-48
2022/01/16 09:20:37;;;;;;;42.07;20.30;;;1.00;99.90;;;;;;5057216;28;20427;-48
2022/01/16 09:23:03;;;;;;;46.87;24.23;;;1.00;99.90;;;;;;5050670;28;20452;-51
2022/01/16 09:25:29;;;;;;;41.80;21.90;;;1.00;99.90;;;;;;5053959;28;20457;-49
2022/01/16 09:27:55;;;;;;;45.90;22.53;;;1.00;99.90;;;;;;5056287;28;20438;-52
2022/01/16 09:30:22;;;;;;;41.07;22.10;;;1.00;99.90;;;;;;5058108;28;20533;-50
2022/01/16 09:32:48;;;;;;;44.20;24.87;;;1.10;99.90;;;;;;5053059;28;20207;-47
2022/01/16 09:35:15;;;;;;;46.20;24.10;;;1.00;99.90;;;;;;5057559;28;20412;-49
2022/01/16 09:37:42;;;;;;;36.03;19.70;;;1.00;99.90;;;;;;5058002;28;20457;-47
2022/01/16 09:40:09;;;;;;;45.07;22.27;;;1.00;99.90;;;;;;5054759;28;20934;-48
2022/01/16 09:42:36;;;;;;;45.37;23.10;;;1.00;99.90;;;;;;5055550;28;20932;-50
2022/01/16 09:45:04;;;;;;;43.27;25.13;;;1.00;99.90;;;;;;5051914;28;20883;-50
2022/01/16 09:47:30;;;;;;;42.70;23.00;;;1.10;99.90;;;;;;5056793;28;20480;-48
2022/01/16 09:49:55;;;;;;;43.33;21.63;;;1.20;99.90;;;;;;5054195;28;20441;-49
2022/01/16 09:52:21;;;;;;;49.80;25.70;;;1.20;99.90;;;;;;5055848;28;20211;-48
2022/01/16 09:54:47;;;;;;;51.63;23.60;;;1.30;99.90;;;;;;5053888;28;20233;-51
2022/01/16 09:57:14;;;;;;;47.10;24.00;;;1.30;99.90;;;;;;5052961;28;20219;-49
2022/01/16 09:59:39;;;;;;;50.77;25.03;;;1.30;99.90;;;;;;5054709;28;20204;-51
2022/01/16 10:02:06;;;;;;;47.37;24.63;;;1.30;99.90;;;;;;5057832;28;20442;-48
2022/01/16 10:04:38;;;;;;;44.50;25.27;;;1.40;99.90;;;;;;5052444;28;20188;-52
2022/01/16 10:07:16;;;;;;;40.53;23.70;;;1.40;99.90;;;;;;5054285;28;20504;-50
2022/01/16 10:09:45;;;;;;;43.77;25.53;;;1.50;99.90;;;;;;5054257;28;20506;-52
2022/01/16 10:12:19;;;;;;;49.40;24.40;;;1.50;99.90;;;;;;5052480;28;20448;-50
2022/01/16 10:14:48;;;;;;;50.33;25.30;;;1.60;99.90;;;;;;5056352;28;20435;-49
2022/01/16 10:17:21;;;;;;;48.70;24.70;;;1.50;99.90;;;;;;5050740;28;20916;-46
2022/01/16 10:20:05;;;;;;;45.43;18.17;;;1.60;99.90;;;;;;5054526;28;20949;-48
2022/01/16 10:22:49;;;;;;;52.67;26.83;;;1.70;99.90;;;;;;5055342;28;20440;-52
2022/01/16 10:25:33;;;;;;;47.57;24.30;;;1.70;99.90;;;;;;5051316;28;20886;-48
2022/01/16 10:28:02;;;;;;;54.47;26.77;;;1.70;99.90;;;;;;5035999;28;20460;-51
2022/01/16 10:30:43;;;;;;;49.27;24.13;;;1.70;99.90;;;;;;5059046;28;20428;-50
2022/01/16 10:33:13;;;;;;;26.70;14.07;;;1.80;99.90;;;;;;5054509;28;20447;-49
2022/01/16 10:35:40;;;;;;;44.83;22.70;;;1.80;99.90;;;;;;5052657;28;20491;-48
2022/01/16 10:38:15;;;;;;;52.17;26.40;;;1.80;99.90;;;;;;5053731;28;20450;-47
2022/01/16 10:40:44;;;;;;;45.57;23.57;;;1.80;99.90;;;;;;5054273;28;20432;-52
2022/01/16 10:43:13;;;;;;;52.07;25.03;;;1.80;99.90;;;;;;5051799;28;20531;-53
2022/01/16 10:45:42;;;;;;;60.17;24.63;;;1.80;99.90;;;;;;5052893;28;20449;-47
2022/01/16 10:48:08;;;;;;;33.03;17.87;;;1.80;99.90;;;;;;5057892;28;20529;-47
2022/01/16 10:50:39;;;;;;;53.50;25.63;;;1.80;99.90;;;;;;5055175;28;20433;-51
2022/01/16 10:53:12;;;;;;;49.80;22.93;;;1.80;99.90;;;;;;5060277;28;20424;-48
2022/01/16 10:55:46;;;;;;;38.57;21.23;;;1.90;99.90;;;;;;5055478;28;20460;-46
2022/01/16 10:58:19;;;;;;;47.20;24.10;;;1.90;99.90;;;;;;5059224;28;20426;-48
2022/01/16 11:00:52;;;;;;;47.70;25.00;;;2.00;99.90;;;;;;5058693;28;20428;-48
2022/01/16 11:03:18;;;;;;;42.00;23.33;;;2.00;99.90;;;;;;5036211;28;20494;-47
2022/01/16 11:05:45;;;;;;;43.90;20.80;;;2.00;99.90;;;;;;5058475;28;20474;-48
2022/01/16 11:08:16;;;;;;;43.93;23.10;;;2.00;99.90;;;;;;5056144;28;20430;-48
2022/01/16 11:10:50;;;;;;;45.67;24.33;;;2.10;99.90;;;;;;5059825;28;20428;-48
2022/01/16 11:13:22;;;;;;;55.77;26.47;;;2.10;99.90;;;;;;5055878;28;20422;-48
2022/01/16 11:15:53;;;;;;;55.50;27.13;;;2.20;99.90;;;;;;5054185;28;21003;-50
2022/01/16 11:18:21;;;;;;;40.37;20.83;;;2.30;99.90;;;;;;5061430;28;20417;-50
2022/01/16 11:23:33;;;;;;;44.40;23.97;;;2.30;99.90;;;;;;5061349;28;20519;-48
2022/01/16 11:26:01;;;;;;;51.60;24.23;;;2.40;99.90;;;;;;5059070;28;20522;-49
2022/01/16 11:28:27;;;;;;;45.73;25.63;;;2.40;99.90;;;;;;5053514;28;20433;-50
2022/01/16 11:30:56;;;;;;;43.10;21.50;;;2.50;99.90;;;;;;5058371;28;20440;-49
2022/01/16 11:33:23;;;;;;;46.63;23.57;;;2.50;99.90;;;;;;5059552;28;20474;-52
2022/01/16 11:35:58;;;;;;;46.67;20.73;;;2.50;99.90;;;;;;5058195;28;20816;-52
2022/01/16 11:38:35;;;;;;;50.00;25.67;;;2.60;99.90;;;;;;5056543;28;20837;-49
2022/01/16 11:41:11;;;;;;;47.33;23.33;;;2.60;99.90;;;;;;5056813;28;20450;-52
2022/01/16 11:43:38;;;;;;;47.00;22.57;;;2.70;99.90;;;;;;5056334;28;20423;-52
2022/01/16 11:46:22;;;;;;;43.83;22.20;;;2.70;99.90;;;;;;5055583;28;20563;-47
2022/01/16 11:48:55;;;;;;;37.33;21.40;;;2.80;99.90;;;;;;5057320;28;20432;-49
2022/01/16 11:51:32;;;;;;;41.60;20.03;;;2.70;99.90;;;;;;5058215;28;20510;-47
2022/01/16 11:54:01;;;;;;;41.27;20.37;;;2.70;99.90;;;;;;5052909;28;21007;-50
2022/01/16 11:56:41;;;;;;;49.43;22.00;;;2.80;99.90;;;;;;5055495;28;20475;-49
2022/01/16 11:59:22;;;;;;;43.23;24.00;;;2.90;99.90;;;;;;5058186;28;20441;-48
2022/01/16 12:02:15;;;;;;;45.47;22.63;;;2.90;99.90;;;;;;5057460;28;20467;-48
2022/01/16 12:04:43;;;;;;;43.90;21.97;;;2.90;99.90;;;;;;5051227;28;20439;-51
2022/01/16 12:07:19;;;;;;;41.47;19.83;;;2.90;99.90;;;;;;5057115;28;20535;-48
2022/01/16 12:12:10;;;;;;;37.73;21.30;;;2.90;99.90;;;;;;5054143;28;20837;-49
2022/01/16 12:14:56;;;;;;;39.00;20.50;;;3.00;99.90;;;;;;5054190;28;20196;-47
2022/01/16 12:17:44;;;;;;;39.90;22.97;;;3.00;99.90;;;;;;5053865;28;20280;-50
2022/01/16 12:20:17;;;;;;;34.37;17.57;;;3.00;99.90;;;;;;5058698;28;20606;-51
2022/01/16 12:22:58;;;;;;;45.80;22.73;;;3.00;99.90;;;;;;5055111;28;20437;-49
2022/01/16 12:25:31;;;;;;;45.53;22.53;;;3.00;99.90;;;;;;5055337;28;20536;-46
2022/01/16 12:28:03;;;;;;;33.93;19.67;;;3.00;99.90;;;;;;5058223;28;20442;-47
2022/01/16 12:30:37;;;;;;;41.70;21.17;;;3.00;99.90;;;;;;5053685;28;20462;-51
2022/01/16 12:33:16;;;;;;;44.47;22.73;;;3.00;99.90;;;;;;5056681;28;20438;-52
2022/01/16 12:35:42;;;;;;;41.77;22.20;;;2.90;99.90;;;;;;5057383;28;21030;-45
2022/01/16 12:38:09;;;;;;;40.33;24.63;;;3.00;99.90;;;;;;5052142;28;20407;-49
2022/01/16 12:40:38;;;;;;;42.17;21.97;;;3.00;99.90;;;;;;5057262;28;20183;-48
2022/01/16 12:43:05;;;;;;;47.90;23.50;;;3.00;99.90;;;;;;5056995;28;21040;-49
2022/01/16 12:45:41;;;;;;;37.90;21.50;;;3.00;99.90;;;;;;5056311;28;20960;-49
2022/01/16 12:48:07;;;;;;;47.80;24.60;;;3.00;99.90;;;;;;5054430;28;20442;-49
2022/01/16 12:50:35;;;;;;;46.50;24.10;;;3.00;99.90;;;;;;5057675;28;20449;-52
2022/01/16 12:53:00;;;;;;;40.83;21.63;;;3.00;99.90;;;;;;5057109;28;20427;-45
2022/01/16 12:55:31;;;;;;;43.30;22.03;;;3.00;99.90;;;;;;5056250;28;20457;-46
2022/01/16 12:58:20;;;;;;;42.53;23.60;;;3.00;99.90;;;;;;5051657;28;20199;-46
2022/01/16 13:01:04;;;;;;;34.87;20.40;;;3.00;99.90;;;;;;5058595;28;20430;-45
2022/01/16 13:03:33;;;;;;;40.37;25.20;;;3.00;99.90;;;;;;5052143;28;21484;-47
2022/01/16 13:06:17;;;;;;;42.63;22.60;;;3.10;99.90;;;;;;5039714;28;21053;-45
2022/01/16 13:09:07;;;;;;;46.07;24.33;;;3.10;99.90;;;;;;5052505;28;20434;-51
2022/01/16 13:11:50;;;;;;;43.23;22.27;;;3.10;99.90;;;;;;5054347;28;20466;-49
2022/01/16 13:14:23;;;;;;;36.37;19.67;;;3.20;99.90;;;;;;5051639;28;20533;-49
2022/01/16 13:16:56;;;;;;;47.70;23.03;;;3.20;99.90;;;;;;5054921;28;20468;-48
2022/01/16 13:19:39;;;;;;;47.60;23.83;;;3.20;99.90;;;;;;5053535;28;20446;-48
2022/01/16 13:22:12;;;;;;;41.07;23.60;;;3.20;99.90;;;;;;5056009;28;20445;-50
2022/01/16 13:24:38;;;;;;;41.77;21.03;;;3.20;99.90;;;;;;5056974;28;20807;-47
2022/01/16 13:27:10;;;;;;;46.83;22.67;;;3.20;99.90;;;;;;5054744;28;20557;-49